sensor_id;sensor_type;location;lat;lon;timestamp;pressure;altitude;pressure_sealevel;temperature;humidity
72409;BME280;60402;48.082;11.628;2023-02-02T00:01:58;95746.16;;;3.67;76.99
72409;BME280;60402;48.082;11.628;2023-02-02T00:06:51;95740.13;;;3.62;76.76
72409;BME280;60402;48.082;11.628;2023-02-02T00:09:18;95726.91;;;3.51;77.24
72409;BME280;60402;48.082;11.628;2023-02-02T00:11:45;95742.16;;;3.68;75.82
72409;BME280;60402;48.082;11.628;2023-02-02T00:14:11;95752.91;;;3.66;76.24
72409;BME280;60402;48.082;11.628;2023-02-02T00:16:39;95708.97;;;3.56;76.30
72409;BME280;60402;48.082;11.628;2023-02-02T00:19:08;95730.53;;;3.59;77.20
72409;BME280;60402;48.082;11.628;2023-02-02T00:21:34;95721.41;;;3.73;76.72
72409;BME280;60402;48.082;11.628;2023-02-02T00:23:59;95672.56;;;3.31;76.61
72409;BME280;60402;48.082;11.628;2023-02-02T00:26:25;95736.53;;;3.65;77.29
72409;BME280;60402;48.082;11.628;2023-02-02T00:28:51;95741.75;;;3.63;77.73
72409;BME280;60402;48.082;11.628;2023-02-02T00:31:17;95706.13;;;3.45;76.80
72409;BME280;60402;48.082;11.628;2023-02-02T00:33:46;95729.31;;;3.56;78.07
72409;BME280;60402;48.082;11.628;2023-02-02T00:36:13;95720.56;;;3.58;77.23
72409;BME280;60402;48.082;11.628;2023-02-02T00:38:38;95692.97;;;3.46;76.78
72409;BME280;60402;48.082;11.628;2023-02-02T00:41:04;95712.16;;;3.54;77.73
72409;BME280;60402;48.082;11.628;2023-02-02T00:43:29;95720.13;;;3.52;77.20
72409;BME280;60402;48.082;11.628;2023-02-02T00:45:55;95726.94;;;3.58;77.76
72409;BME280;60402;48.082;11.628;2023-02-02T00:48:20;95718.13;;;3.49;78.75
72409;BME280;60402;48.082;11.628;2023-02-02T00:50:46;95716.84;;;3.32;79.60
72409;BME280;60402;48.082;11.628;2023-02-02T00:53:11;95710.88;;;3.34;78.92
72409;BME280;60402;48.082;11.628;2023-02-02T00:55:37;95725.34;;;3.54;78.86
72409;BME280;60402;48.082;11.628;2023-02-02T00:58:02;95727.72;;;3.55;79.18
72409;BME280;60402;48.082;11.628;2023-02-02T01:00:27;95734.47;;;3.47;80.04
72409;BME280;60402;48.082;11.628;2023-02-02T01:02:53;95721.75;;;3.53;79.70
72409;BME280;60402;48.082;11.628;2023-02-02T01:05:19;95728.50;;;3.52;80.16
72409;BME280;60402;48.082;11.628;2023-02-02T01:07:45;95731.63;;;3.37;81.57
72409;BME280;60402;48.082;11.628;2023-02-02T01:10:18;95744.78;;;3.36;82.49
72409;BME280;60402;48.082;11.628;2023-02-02T01:12:43;95676.38;;;2.98;83.60
72409;BME280;60402;48.082;11.628;2023-02-02T01:15:10;95718.81;;;3.25;84.18
72409;BME280;60402;48.082;11.628;2023-02-02T01:17:36;95711.59;;;3.24;85.34
72409;BME280;60402;48.082;11.628;2023-02-02T01:20:02;95735.53;;;3.18;85.61
72409;BME280;60402;48.082;11.628;2023-02-02T01:22:27;95709.13;;;3.04;85.68
72409;BME280;60402;48.082;11.628;2023-02-02T01:24:53;95730.34;;;3.20;86.49
72409;BME280;60402;48.082;11.628;2023-02-02T01:27:18;95729.09;;;3.10;85.63
72409;BME280;60402;48.082;11.628;2023-02-02T01:29:43;95717.16;;;3.13;85.84
72409;BME280;60402;48.082;11.628;2023-02-02T01:32:09;95727.19;;;3.25;85.73
72409;BME280;60402;48.082;11.628;2023-02-02T01:34:34;95711.16;;;3.15;85.72
72409;BME280;60402;48.082;11.628;2023-02-02T01:37:00;95738.75;;;3.23;85.72
72409;BME280;60402;48.082;11.628;2023-02-02T01:39:25;95718.81;;;3.25;84.99
72409;BME280;60402;48.082;11.628;2023-02-02T01:41:51;95710.38;;;3.14;85.10
72409;BME280;60402;48.082;11.628;2023-02-02T01:47:22;95709.59;;;3.17;84.68
72409;BME280;60402;48.082;11.628;2023-02-02T01:49:48;95721.16;;;3.16;85.04
72409;BME280;60402;48.082;11.628;2023-02-02T01:52:16;95698.75;;;3.05;84.92
72409;BME280;60402;48.082;11.628;2023-02-02T01:54:47;95695.25;;;3.22;82.76
72409;BME280;60402;48.082;11.628;2023-02-02T01:57:17;95686.03;;;3.11;83.03
72409;BME280;60402;48.082;11.628;2023-02-02T01:59:46;95703.66;;;3.26;82.42
72409;BME280;60402;48.082;11.628;2023-02-02T02:02:13;95685.25;;;3.18;83.37
72409;BME280;60402;48.082;11.628;2023-02-02T02:04:39;95686.06;;;3.22;82.84
72409;BME280;60402;48.082;11.628;2023-02-02T02:07:06;95686.47;;;3.20;83.03
72409;BME280;60402;48.082;11.628;2023-02-02T02:09:32;95680.41;;;3.04;83.60
72409;BME280;60402;48.082;11.628;2023-02-02T02:11:58;95690.44;;;3.16;82.93
72409;BME280;60402;48.082;11.628;2023-02-02T02:14:23;95690.91;;;3.32;82.17
72409;BME280;60402;48.082;11.628;2023-02-02T02:20:19;95706.50;;;3.37;82.06
72409;BME280;60402;48.082;11.628;2023-02-02T02:26:50;95696.91;;;3.34;82.39
72409;BME280;60402;48.082;11.628;2023-02-02T02:32:30;95704.88;;;3.32;82.54
72409;BME280;60402;48.082;11.628;2023-02-02T02:35:04;95718.06;;;3.35;82.50
72409;BME280;60402;48.082;11.628;2023-02-02T02:40:37;95674.56;;;3.30;82.83
72409;BME280;60402;48.082;11.628;2023-02-02T02:45:51;95674.91;;;3.22;81.95
72409;BME280;60402;48.082;11.628;2023-02-02T02:48:16;95675.72;;;3.26;81.71
72409;BME280;60402;48.082;11.628;2023-02-02T02:50:42;95657.75;;;3.16;82.41
72409;BME280;60402;48.082;11.628;2023-02-02T02:53:12;95659.72;;;3.12;81.54
72409;BME280;60402;48.082;11.628;2023-02-02T02:55:56;95664.94;;;3.28;81.74
72409;BME280;60402;48.082;11.628;2023-02-02T02:58:30;95702.50;;;3.38;81.94
72409;BME280;60402;48.082;11.628;2023-02-02T03:06:26;95662.22;;;3.46;81.06
72409;BME280;60402;48.082;11.628;2023-02-02T03:08:58;95696.97;;;3.45;81.38
72409;BME280;60402;48.082;11.628;2023-02-02T03:11:23;95669.34;;;3.32;81.22
72409;BME280;60402;48.082;11.628;2023-02-02T03:13:49;95666.16;;;3.27;81.67
72409;BME280;60402;48.082;11.628;2023-02-02T03:16:15;95691.72;;;3.36;81.17
72409;BME280;60402;48.082;11.628;2023-02-02T03:18:40;95686.13;;;3.36;81.41
72409;BME280;60402;48.082;11.628;2023-02-02T03:21:06;95689.38;;;3.52;81.05
72409;BME280;60402;48.082;11.628;2023-02-02T03:23:32;95680.16;;;3.38;81.65
72409;BME280;60402;48.082;11.628;2023-02-02T03:25:58;95680.16;;;3.38;82.29
72409;BME280;60402;48.082;11.628;2023-02-02T03:28:24;95670.56;;;3.31;82.82
72409;BME280;60402;48.082;11.628;2023-02-02T03:30:50;95698.97;;;3.51;83.11
72409;BME280;60402;48.082;11.628;2023-02-02T03:33:16;95688.56;;;3.45;81.88
72409;BME280;60402;48.082;11.628;2023-02-02T03:35:43;95710.09;;;3.41;82.74
72409;BME280;60402;48.082;11.628;2023-02-02T03:38:08;95688.91;;;3.25;84.65
72409;BME280;60402;48.082;11.628;2023-02-02T03:40:34;95699.25;;;3.28;85.59
72409;BME280;60402;48.082;11.628;2023-02-02T03:42:59;95702.00;;;3.18;87.49
72409;BME280;60402;48.082;11.628;2023-02-02T03:45:28;95697.19;;;3.07;88.28
72409;BME280;60402;48.082;11.628;2023-02-02T03:47:54;95699.16;;;3.03;88.13
72409;BME280;60402;48.082;11.628;2023-02-02T03:50:19;95724.72;;;3.13;88.28
72409;BME280;60402;48.082;11.628;2023-02-02T03:52:45;95703.16;;;3.10;88.71
72409;BME280;60402;48.082;11.628;2023-02-02T03:55:10;95698.75;;;3.05;88.12
72409;BME280;60402;48.082;11.628;2023-02-02T03:57:35;95691.16;;;3.02;88.59
72409;BME280;60402;48.082;11.628;2023-02-02T04:00:01;95697.19;;;3.07;88.21
72409;BME280;60402;48.082;11.628;2023-02-02T04:02:26;95723.94;;;3.19;87.50
72409;BME280;60402;48.082;11.628;2023-02-02T04:04:51;95700.00;;;3.15;87.28
72409;BME280;60402;48.082;11.628;2023-02-02T04:07:17;95696.75;;;3.05;87.54
72409;BME280;60402;48.082;11.628;2023-02-02T04:09:42;95698.81;;;3.16;86.83
72409;BME280;60402;48.082;11.628;2023-02-02T04:12:07;95686.78;;;3.04;87.70
72409;BME280;60402;48.082;11.628;2023-02-02T04:14:32;95694.47;;;3.29;86.25
72409;BME280;60402;48.082;11.628;2023-02-02T04:16:58;95680.44;;;3.15;85.88
72409;BME280;60402;48.082;11.628;2023-02-02T04:19:23;95706.81;;;3.21;87.36
72409;BME280;60402;48.082;11.628;2023-02-02T04:21:48;95708.44;;;3.29;86.34
72409;BME280;60402;48.082;11.628;2023-02-02T04:24:14;95696.03;;;3.16;86.84
72409;BME280;60402;48.082;11.628;2023-02-02T04:26:40;95691.25;;;3.20;86.19
72409;BME280;60402;48.082;11.628;2023-02-02T04:29:05;95708.88;;;3.31;86.35
72409;BME280;60402;48.082;11.628;2023-02-02T04:31:31;95696.06;;;3.23;85.69
72409;BME280;60402;48.082;11.628;2023-02-02T04:33:57;95686.91;;;3.29;85.16
72409;BME280;60402;48.082;11.628;2023-02-02T04:36:23;95683.66;;;3.17;85.67
72409;BME280;60402;48.082;11.628;2023-02-02T04:38:52;95699.25;;;3.28;85.49
72409;BME280;60402;48.082;11.628;2023-02-02T04:41:18;95710.50;;;3.39;85.01
72409;BME280;60402;48.082;11.628;2023-02-02T04:43:43;95731.69;;;3.44;86.14
72409;BME280;60402;48.082;11.628;2023-02-02T04:46:09;95723.25;;;3.37;86.51
72409;BME280;60402;48.082;11.628;2023-02-02T04:48:34;95719.66;;;3.36;87.01
72409;BME280;60402;48.082;11.628;2023-02-02T04:51:05;95716.03;;;3.32;87.06
72409;BME280;60402;48.082;11.628;2023-02-02T04:53:31;95718.81;;;3.28;86.55
72409;BME280;60402;48.082;11.628;2023-02-02T04:55:57;95681.72;;;3.31;85.22
72409;BME280;60402;48.082;11.628;2023-02-02T04:58:23;95712.91;;;3.41;85.12
72409;BME280;60402;48.082;11.628;2023-02-02T05:00:48;95720.06;;;3.42;85.03
72409;BME280;60402;48.082;11.628;2023-02-02T05:03:13;95701.69;;;3.37;84.47
72409;BME280;60402;48.082;11.628;2023-02-02T05:05:39;95697.72;;;3.38;84.96
72409;BME280;60402;48.082;11.628;2023-02-02T05:08:04;95704.53;;;3.48;83.89
72409;BME280;60402;48.082;11.628;2023-02-02T05:10:32;95718.13;;;3.56;83.42
72409;BME280;60402;48.082;11.628;2023-02-02T05:12:57;95705.34;;;3.45;83.77
72409;BME280;60402;48.082;11.628;2023-02-02T05:15:23;95713.38;;;3.64;83.75
72409;BME280;60402;48.082;11.628;2023-02-02T05:17:48;95725.72;;;3.56;83.46
72409;BME280;60402;48.082;11.628;2023-02-02T05:20:13;95667.66;;;3.10;84.01
72409;BME280;60402;48.082;11.628;2023-02-02T05:22:39;95700.88;;;3.33;85.06
72409;BME280;60402;48.082;11.628;2023-02-02T05:25:05;95714.47;;;3.38;84.75
72409;BME280;60402;48.082;11.628;2023-02-02T05:27:31;95689.72;;;3.29;84.31
72409;BME280;60402;48.082;11.628;2023-02-02T05:29:56;95739.28;;;3.50;83.79
72409;BME280;60402;48.082;11.628;2023-02-02T05:32:22;95721.69;;;3.46;84.33
72409;BME280;60402;48.082;11.628;2023-02-02T05:34:47;95717.69;;;3.40;85.42
72409;BME280;60402;48.082;11.628;2023-02-02T05:37:12;95735.28;;;3.51;86.03
72409;BME280;60402;48.082;11.628;2023-02-02T05:39:38;95726.09;;;3.47;86.44
72409;BME280;60402;48.082;11.628;2023-02-02T05:42:03;95736.06;;;3.45;86.71
72409;BME280;60402;48.082;11.628;2023-02-02T05:44:28;95741.25;;;3.46;86.42
72409;BME280;60402;48.082;11.628;2023-02-02T05:46:54;95744.81;;;3.43;86.95
72409;BME280;60402;48.082;11.628;2023-02-02T05:49:19;95698.78;;;3.08;87.38
72409;BME280;60402;48.082;11.628;2023-02-02T05:51:49;95730.78;;;3.29;87.50
72409;BME280;60402;48.082;11.628;2023-02-02T05:54:16;95759.59;;;3.40;87.39
72409;BME280;60402;48.082;11.628;2023-02-02T05:56:45;95736.00;;;3.38;87.77
72409;BME280;60402;48.082;11.628;2023-02-02T05:59:11;95737.59;;;3.31;88.46
72409;BME280;60402;48.082;11.628;2023-02-02T06:01:36;95712.75;;;3.12;88.60
72409;BME280;60402;48.082;11.628;2023-02-02T06:04:01;95739.13;;;3.22;89.02
72409;BME280;60402;48.082;11.628;2023-02-02T06:06:27;95739.19;;;3.32;88.91
72409;BME280;60402;48.082;11.628;2023-02-02T06:08:52;95743.19;;;3.35;88.04
72409;BME280;60402;48.082;11.628;2023-02-02T06:11:18;95733.22;;;3.34;87.56
72409;BME280;60402;48.082;11.628;2023-02-02T06:13:43;95745.19;;;3.38;87.40
72409;BME280;60402;48.082;11.628;2023-02-02T06:16:09;95739.63;;;3.35;86.38
72409;BME280;60402;48.082;11.628;2023-02-02T06:18:35;95759.63;;;3.51;86.53
72409;BME280;60402;48.082;11.628;2023-02-02T06:21:02;95754.84;;;3.51;86.78
72409;BME280;60402;48.082;11.628;2023-02-02T06:23:27;95726.84;;;3.37;86.73
72409;BME280;60402;48.082;11.628;2023-02-02T06:25:53;95744.81;;;3.40;87.34
72409;BME280;60402;48.082;11.628;2023-02-02T06:28:19;95744.41;;;3.41;87.81
72409;BME280;60402;48.082;11.628;2023-02-02T06:30:44;95754.84;;;3.51;87.57
72409;BME280;60402;48.082;11.628;2023-02-02T06:33:10;95763.59;;;3.46;87.12
72409;BME280;60402;48.082;11.628;2023-02-02T06:35:35;95739.63;;;3.35;87.52
72409;BME280;60402;48.082;11.628;2023-02-02T06:38:00;95724.38;;;3.21;87.35
72409;BME280;60402;48.082;11.628;2023-02-02T06:40:27;95746.84;;;3.46;86.39
72409;BME280;60402;48.082;11.628;2023-02-02T06:42:57;95743.66;;;3.48;86.52
72409;BME280;60402;48.082;11.628;2023-02-02T06:45:22;95743.22;;;3.42;86.73
72409;BME280;60402;48.082;11.628;2023-02-02T06:47:48;95764.38;;;3.43;86.97
72409;BME280;60402;48.082;11.628;2023-02-02T06:50:13;95721.63;;;3.32;85.87
72409;BME280;60402;48.082;11.628;2023-02-02T06:52:38;95752.84;;;3.52;85.79
72409;BME280;60402;48.082;11.628;2023-02-02T06:55:04;95767.22;;;3.50;86.09
72409;BME280;60402;48.082;11.628;2023-02-02T06:57:29;95766.00;;;3.48;86.47
72409;BME280;60402;48.082;11.628;2023-02-02T06:59:54;95780.81;;;3.55;85.44
72409;BME280;60402;48.082;11.628;2023-02-02T07:02:20;95757.25;;;3.49;85.64
72409;BME280;60402;48.082;11.628;2023-02-02T07:04:47;95782.34;;;3.42;86.05
72409;BME280;60402;48.082;11.628;2023-02-02T07:07:12;95774.81;;;3.53;86.10
72409;BME280;60402;48.082;11.628;2023-02-02T07:09:37;95749.22;;;3.41;86.11
72409;BME280;60402;48.082;11.628;2023-02-02T07:12:03;95756.00;;;3.40;86.68
72409;BME280;60402;48.082;11.628;2023-02-02T07:14:28;95777.94;;;3.41;86.43
72409;BME280;60402;48.082;11.628;2023-02-02T07:16:54;95773.59;;;3.44;86.03
72409;BME280;60402;48.082;11.628;2023-02-02T07:19:19;95785.94;;;3.46;86.89
72409;BME280;60402;48.082;11.628;2023-02-02T07:21:44;95766.75;;;3.38;86.81
72409;BME280;60402;48.082;11.628;2023-02-02T07:24:10;95796.38;;;3.53;86.77
72409;BME280;60402;48.082;11.628;2023-02-02T07:26:35;95775.19;;;3.48;86.48
72409;BME280;60402;48.082;11.628;2023-02-02T07:29:01;95804.81;;;3.64;85.60
72409;BME280;60402;48.082;11.628;2023-02-02T07:31:27;95806.81;;;3.67;86.15
72409;BME280;60402;48.082;11.628;2023-02-02T07:33:53;95810.78;;;3.62;85.61
72409;BME280;60402;48.082;11.628;2023-02-02T07:36:20;95813.22;;;3.67;85.44
72409;BME280;60402;48.082;11.628;2023-02-02T07:38:47;95812.75;;;3.62;86.04
72409;BME280;60402;48.082;11.628;2023-02-02T07:41:14;95819.63;;;3.75;86.27
72409;BME280;60402;48.082;11.628;2023-02-02T07:43:40;95786.38;;;3.48;86.93
72409;BME280;60402;48.082;11.628;2023-02-02T07:46:07;95812.38;;;3.67;86.61
72409;BME280;60402;48.082;11.628;2023-02-02T07:48:34;95811.59;;;3.66;86.48
72409;BME280;60402;48.082;11.628;2023-02-02T07:51:05;95821.94;;;3.62;86.81
72409;BME280;60402;48.082;11.628;2023-02-02T07:53:31;95818.44;;;3.72;86.95
72409;BME280;60402;48.082;11.628;2023-02-02T07:56:10;95828.00;;;3.71;87.34
72409;BME280;60402;48.082;11.628;2023-02-02T07:58:36;95800.41;;;3.66;88.17
72409;BME280;60402;48.082;11.628;2023-02-02T08:01:03;95825.63;;;3.73;87.98
72409;BME280;60402;48.082;11.628;2023-02-02T08:03:28;95818.00;;;3.70;88.22
72409;BME280;60402;48.082;11.628;2023-02-02T08:05:54;95828.38;;;3.70;88.93
72409;BME280;60402;48.082;11.628;2023-02-02T08:08:20;95845.16;;;3.70;89.91
72409;BME280;60402;48.082;11.628;2023-02-02T08:10:52;95835.63;;;3.78;89.63
72409;BME280;60402;48.082;11.628;2023-02-02T08:13:18;95809.94;;;3.51;90.03
72409;BME280;60402;48.082;11.628;2023-02-02T08:15:44;95833.97;;;3.70;90.19
72409;BME280;60402;48.082;11.628;2023-02-02T08:18:10;95838.41;;;3.74;90.25
72409;BME280;60402;48.082;11.628;2023-02-02T08:20:35;95821.16;;;3.58;89.99
72409;BME280;60402;48.082;11.628;2023-02-02T08:23:01;95830.00;;;3.67;89.64
72409;BME280;60402;48.082;11.628;2023-02-02T08:25:26;95841.66;;;3.87;90.95
72409;BME280;60402;48.082;11.628;2023-02-02T08:27:56;95848.44;;;3.90;90.31
72409;BME280;60402;48.082;11.628;2023-02-02T08:30:25;95867.38;;;4.25;90.86
72409;BME280;60402;48.082;11.628;2023-02-02T08:32:51;95749.97;;;3.30;88.61
72409;BME280;60402;48.082;11.628;2023-02-02T08:35:16;95800.78;;;3.57;88.63
72409;BME280;60402;48.082;11.628;2023-02-02T08:37:43;95890.84;;;3.99;89.18
72409;BME280;60402;48.082;11.628;2023-02-02T08:40:09;95799.50;;;3.41;89.77
72409;BME280;60402;48.082;11.628;2023-02-02T08:42:34;95840.38;;;3.70;89.79
72409;BME280;60402;48.082;11.628;2023-02-02T08:44:59;95879.28;;;4.04;89.40
72409;BME280;60402;48.082;11.628;2023-02-02T08:47:28;95891.25;;;4.01;89.99
72409;BME280;60402;48.082;11.628;2023-02-02T08:49:53;95843.94;;;3.64;89.82
72409;BME280;60402;48.082;11.628;2023-02-02T08:52:22;95840.25;;;3.52;89.61
72409;BME280;60402;48.082;11.628;2023-02-02T08:54:47;95864.72;;;3.70;90.53
72409;BME280;60402;48.082;11.628;2023-02-02T08:57:12;95880.34;;;3.78;91.08
72409;BME280;60402;48.082;11.628;2023-02-02T08:59:40;95885.13;;;3.74;91.39
72409;BME280;60402;48.082;11.628;2023-02-02T09:02:07;95895.91;;;3.79;91.71
72409;BME280;60402;48.082;11.628;2023-02-02T09:04:32;95865.91;;;3.65;92.05
72409;BME280;60402;48.082;11.628;2023-02-02T09:06:58;95898.31;;;3.77;91.63
72409;BME280;60402;48.082;11.628;2023-02-02T09:09:23;95895.88;;;3.68;92.27
72409;BME280;60402;48.082;11.628;2023-02-02T09:12:14;95871.38;;;3.51;91.84
72409;BME280;60402;48.082;11.628;2023-02-02T09:14:39;95891.44;;;3.64;92.02
72409;BME280;60402;48.082;11.628;2023-02-02T09:17:05;95816.16;;;3.26;91.79
72409;BME280;60402;48.082;11.628;2023-02-02T09:19:30;95879.47;;;3.63;91.19
72409;BME280;60402;48.082;11.628;2023-02-02T09:21:55;95884.22;;;3.59;91.75
72409;BME280;60402;48.082;11.628;2023-02-02T09:24:21;95881.81;;;3.57;91.78
72409;BME280;60402;48.082;11.628;2023-02-02T09:26:46;95902.38;;;3.87;90.46
72409;BME280;60402;48.082;11.628;2023-02-02T09:29:14;95863.03;;;3.54;90.92
72409;BME280;60402;48.082;11.628;2023-02-02T09:31:40;95896.31;;;3.77;91.16
72409;BME280;60402;48.082;11.628;2023-02-02T09:34:11;95913.91;;;3.81;91.11
72409;BME280;60402;48.082;11.628;2023-02-02T09:36:37;95862.66;;;3.59;90.23
72409;BME280;60402;48.082;11.628;2023-02-02T09:39:04;95916.31;;;3.83;91.27
72409;BME280;60402;48.082;11.628;2023-02-02T09:47:24;95898.00;;;3.93;90.62
72409;BME280;60402;48.082;11.628;2023-02-02T09:52:42;95879.97;;;3.83;90.22
72409;BME280;60402;48.082;11.628;2023-02-02T09:55:15;95922.03;;;4.01;90.77
72409;BME280;60402;48.082;11.628;2023-02-02T09:57:51;95899.59;;;3.94;90.28
72409;BME280;60402;48.082;11.628;2023-02-02T10:00:32;95917.97;;;3.91;91.79
72409;BME280;60402;48.082;11.628;2023-02-02T10:03:03;95925.59;;;3.98;91.74
72409;BME280;60402;48.082;11.628;2023-02-02T10:05:41;95851.78;;;3.40;91.50
72409;BME280;60402;48.082;11.628;2023-02-02T10:08:16;95822.53;;;3.23;91.98
72409;BME280;60402;48.082;11.628;2023-02-02T10:10:45;95904.34;;;3.82;91.08
72409;BME280;60402;48.082;11.628;2023-02-02T10:13:15;95926.81;;;4.00;91.63
72409;BME280;60402;48.082;11.628;2023-02-02T10:23:27;95922.06;;;4.12;90.03
72409;BME280;60402;48.082;11.628;2023-02-02T10:28:41;95882.03;;;3.97;89.80
72409;BME280;60402;48.082;11.628;2023-02-02T10:31:14;95878.84;;;3.98;89.45
72409;BME280;60402;48.082;11.628;2023-02-02T10:33:51;95898.03;;;3.96;90.16
72409;BME280;60402;48.082;11.628;2023-02-02T10:40:09;95899.31;;;4.17;89.39
72409;BME280;60402;48.082;11.628;2023-02-02T10:45:40;95796.75;;;3.51;87.95
72409;BME280;60402;48.082;11.628;2023-02-02T10:47:58;95840.81;;;3.79;88.22
72409;BME280;60402;48.082;11.628;2023-02-02T10:50:33;95863.66;;;3.92;88.52
72409;BME280;60402;48.082;11.628;2023-02-02T10:53:20;95848.09;;;3.98;87.81
72409;BME280;60402;48.082;11.628;2023-02-02T10:56:07;95787.56;;;3.44;87.66
72409;BME280;60402;48.082;11.628;2023-02-02T11:01:48;95798.00;;;3.61;87.55
72409;BME280;60402;48.082;11.628;2023-02-02T11:04:14;95805.66;;;3.75;87.38
72409;BME280;60402;48.082;11.628;2023-02-02T11:07:06;95858.50;;;4.01;87.64
72409;BME280;60402;48.082;11.628;2023-02-02T11:09:53;95797.69;;;3.80;87.15
72409;BME280;60402;48.082;11.628;2023-02-02T11:12:34;95858.63;;;4.37;87.77
72409;BME280;60402;48.082;11.628;2023-02-02T11:15:04;95857.88;;;4.47;87.71
72409;BME280;60402;48.082;11.628;2023-02-02T11:17:30;95885.47;;;4.59;86.40
72409;BME280;60402;48.082;11.628;2023-02-02T11:19:56;95869.44;;;4.46;87.07
72409;BME280;60402;48.082;11.628;2023-02-02T11:22:38;95847.44;;;4.41;86.41
72409;BME280;60402;48.082;11.628;2023-02-02T11:25:25;95867.06;;;4.48;85.99
72409;BME280;60402;48.082;11.628;2023-02-02T11:27:51;95872.69;;;4.69;86.14
72409;BME280;60402;48.082;11.628;2023-02-02T11:30:39;95886.31;;;4.74;86.63
72409;BME280;60402;48.082;11.628;2023-02-02T11:33:40;95886.34;;;4.85;85.54
72409;BME280;60402;48.082;11.628;2023-02-02T11:36:20;95875.13;;;4.88;86.90
72409;BME280;60402;48.082;11.628;2023-02-02T11:38:45;95875.09;;;4.74;85.75
72409;BME280;60402;48.082;11.628;2023-02-02T11:41:11;95864.72;;;4.82;86.12
72409;BME280;60402;48.082;11.628;2023-02-02T11:43:49;95866.28;;;4.65;87.38
72409;BME280;60402;48.082;11.628;2023-02-02T11:48:53;95849.47;;;4.51;87.49
72409;BME280;60402;48.082;11.628;2023-02-02T11:51:24;95889.50;;;4.69;87.94
72409;BME280;60402;48.082;11.628;2023-02-02T11:54:01;95887.09;;;4.68;87.56
72409;BME280;60402;48.082;11.628;2023-02-02T11:56:28;95875.88;;;4.64;87.35
72409;BME280;60402;48.082;11.628;2023-02-02T11:58:55;95831.47;;;4.48;87.36
72409;BME280;60402;48.082;11.628;2023-02-02T12:01:28;95877.09;;;4.67;86.74
72409;BME280;60402;48.082;11.628;2023-02-02T12:04:02;95770.25;;;4.15;87.50
72409;BME280;60402;48.082;11.628;2023-02-02T12:06:36;95880.34;;;5.01;86.65
72409;BME280;60402;48.082;11.628;2023-02-02T12:09:11;95820.72;;;4.65;86.36
72409;BME280;60402;48.082;11.628;2023-02-02T12:20:10;95879.94;;;4.88;86.91
72409;BME280;60402;48.082;11.628;2023-02-02T12:28:26;95881.91;;;4.66;88.61
72409;BME280;60402;48.082;11.628;2023-02-02T12:33:42;95867.03;;;4.33;90.62
72409;BME280;60402;48.082;11.628;2023-02-02T12:45:10;95877.78;;;4.24;92.37
72409;BME280;60402;48.082;11.628;2023-02-02T12:48:17;95891.44;;;4.44;92.14
72409;BME280;60402;48.082;11.628;2023-02-02T12:53:37;95890.19;;;4.30;92.39
72409;BME280;60402;48.082;11.628;2023-02-02T13:02:07;95890.53;;;4.22;93.88
72409;BME280;60402;48.082;11.628;2023-02-02T13:07:45;95922.56;;;4.35;93.08
72409;BME280;60402;48.082;11.628;2023-02-02T13:10:22;95895.75;;;4.20;93.75
72409;BME280;60402;48.082;11.628;2023-02-02T13:12:55;95913.69;;;4.15;94.46
72409;BME280;60402;48.082;11.628;2023-02-02T13:15:38;95914.44;;;4.08;94.33
72409;BME280;60402;48.082;11.628;2023-02-02T13:18:31;95871.59;;;3.83;95.28
72409;BME280;60402;48.082;11.628;2023-02-02T13:21:20;95926.81;;;4.04;96.24
72409;BME280;60402;48.082;11.628;2023-02-02T13:23:50;95931.56;;;4.00;95.83
72409;BME280;60402;48.082;11.628;2023-02-02T13:26:21;95891.09;;;3.72;95.68
72409;BME280;60402;48.082;11.628;2023-02-02T13:28:59;95927.16;;;3.92;97.01
72409;BME280;60402;48.082;11.628;2023-02-02T13:31:36;95922.34;;;3.89;96.47
72409;BME280;60402;48.082;11.628;2023-02-02T13:36:38;95951.53;;;3.95;97.14
72409;BME280;60402;48.082;11.628;2023-02-02T13:39:14;95958.28;;;3.87;97.41
72409;BME280;60402;48.082;11.628;2023-02-02T13:41:41;95942.72;;;3.93;98.33
72409;BME280;60402;48.082;11.628;2023-02-02T13:44:13;95957.81;;;3.81;98.74
72409;BME280;60402;48.082;11.628;2023-02-02T14:00:33;95967.38;;;3.76;98.94
72409;BME280;60402;48.082;11.628;2023-02-02T14:03:05;95963.72;;;3.65;100.00
72409;BME280;60402;48.082;11.628;2023-02-02T14:05:38;95969.75;;;3.74;100.00
72409;BME280;60402;48.082;11.628;2023-02-02T14:08:07;95976.97;;;3.79;99.46
72409;BME280;60402;48.082;11.628;2023-02-02T14:10:55;95965.34;;;3.70;100.00
72409;BME280;60402;48.082;11.628;2023-02-02T14:13:44;95978.00;;;3.56;100.00
72409;BME280;60402;48.082;11.628;2023-02-02T14:16:48;95915.88;;;3.22;100.00
72409;BME280;60402;48.082;11.628;2023-02-02T14:31:58;95993.94;;;3.52;100.00
72409;BME280;60402;48.082;11.628;2023-02-02T14:47:56;96009.53;;;3.57;100.00
72409;BME280;60402;48.082;11.628;2023-02-02T14:58:35;96009.50;;;3.50;100.00
72409;BME280;60402;48.082;11.628;2023-02-02T15:01:33;96006.00;;;3.60;100.00
72409;BME280;60402;48.082;11.628;2023-02-02T15:06:37;95997.53;;;3.49;100.00
72409;BME280;60402;48.082;11.628;2023-02-02T15:14:40;96009.91;;;3.52;100.00
72409;BME280;60402;48.082;11.628;2023-02-02T15:17:18;96015.44;;;3.45;100.00
72409;BME280;60402;48.082;11.628;2023-02-02T15:25:01;96008.31;;;3.51;100.00
72409;BME280;60402;48.082;11.628;2023-02-02T15:27:28;95991.06;;;3.42;100.00
72409;BME280;60402;48.082;11.628;2023-02-02T15:29:58;96004.63;;;3.40;100.00
72409;BME280;60402;48.082;11.628;2023-02-02T15:32:27;96014.16;;;3.39;100.00
72409;BME280;60402;48.082;11.628;2023-02-02T15:34:57;96021.41;;;3.43;100.00
72409;BME280;60402;48.082;11.628;2023-02-02T15:37:31;96031.78;;;3.43;100.00
72409;BME280;60402;48.082;11.628;2023-02-02T15:40:09;96026.56;;;3.41;100.00
72409;BME280;60402;48.082;11.628;2023-02-02T15:42:41;96043.28;;;3.38;100.00
72409;BME280;60402;48.082;11.628;2023-02-02T15:47:52;96051.06;;;3.55;100.00
72409;BME280;60402;48.082;11.628;2023-02-02T15:50:19;96047.03;;;3.52;100.00
72409;BME280;60402;48.082;11.628;2023-02-02T15:52:47;96048.53;;;3.43;100.00